03/02 00:00 更新

3,000ftに雲が少し
6,000ftに雲が散在
雲が多い

地上風: 170°12kt

上空風
13,000ft: Array
10,000ft: Array
 7,000ft: Array
 3,000ft: Array

地上: 14℃
上空: 未計測℃

日没: 17:37

RJTJ 011500Z 17012KT 9999 FEW030 SCT060 BKN/// 14/07 Q1016 RMK 1CU030 3SC060 A3002=